Buoy 41607

sailwx.info

Track history (hours):
 
Tides and Currents Weather Stations Pressure Air Temp Water Temp Dewpoint Dewpoint Depression Visibility Wind Speed Wind Dir Waves Ship Positions

Drifting buoy 41607

Last reported at 2016-Feb-20 03:00 UTC. Time now 2016-Dec-06 16:07 UTC.
Position N 24°20' W 067°22'.
Warning: this ship's position is months out of date.

Water temperature 25.7 ° C

Date/timePositionNaut miles runAvg speedWind from/ knotsBaromVisibWave heightAir tempDewpointWater temp
2016-Feb-20 03:00N 24°20' W 067°22'1 0.7 25.7
2016-Feb-20 02:00N 24°21' W 067°21'1 1.3 25.7
2016-Feb-20 01:00N 24°22' W 067°21'0 0.0 25.7
2016-Feb-20 00:00N 24°22' W 067°21'0 0.3 25.7
2016-Feb-19 23:00N 24°23' W 067°21'1 0.4 25.7
2016-Feb-19 21:00N 24°23' W 067°21'1 0.2 25.7
2016-Feb-19 15:00N 24°25' W 067°21'0 0.2 25.8
2016-Feb-19 14:00N 24°25' W 067°21'1 1.1 25.8
2016-Feb-19 13:00N 24°26' W 067°21'0 0.0 25.8
2016-Feb-19 12:00N 24°26' W 067°21'0 0.4 25.8
2016-Feb-19 11:00N 24°25' W 067°21'1 1.5 25.8
2016-Feb-19 10:00N 24°27' W 067°22'3 0.3 25.8
2016-Feb-19 02:00N 24°29' W 067°23'1 0.8 25.8
2016-Feb-19 01:00N 24°29' W 067°24'1 0.7 25.8
2016-Feb-19 00:00N 24°30' W 067°24'0 0.0 25.8
2016-Feb-18 23:00N 24°30' W 067°24'11 0.7 25.8
2016-Feb-18 08:00N 24°28' W 067°36'4 0.6 25.8
2016-Feb-18 01:00N 24°25' W 067°39'3 0.6 25.9
2016-Feb-17 20:00N 24°22' W 067°39'3 0.5 26.0
2016-Feb-17 14:00N 24°19' W 067°37'1 0.7 25.9
2016-Feb-17 12:00N 24°19' W 067°39'0 0.4 25.8
2016-Feb-17 11:00N 24°19' W 067°39'6 0.6 25.8
2016-Feb-17 02:00N 24°14' W 067°42'1 0.9 25.8
2016-Feb-17 01:00N 24°13' W 067°42'2 1.1 25.8
2016-Feb-16 23:00N 24°11' W 067°42'7 0.6 25.8
2016-Feb-16 11:00N 24°06' W 067°37'1 0.7 25.9
2016-Feb-16 10:00N 24°05' W 067°36'3 0.4 25.9
2016-Feb-16 02:00N 24°02' W 067°35'1 0.5 25.9
2016-Feb-15 23:00N 24°01' W 067°34'0 0.1 25.9
2016-Feb-15 22:00N 24°01' W 067°34'0 0.1 25.9
2016-Feb-15 20:00N 24°01' W 067°34'1 0.4 25.9
2016-Feb-15 18:00N 24°01' W 067°33'1 0.3 25.9
2016-Feb-15 15:00N 24°01' W 067°32'2 0.7 25.9
2016-Feb-15 12:00N 24°02' W 067°30'11 0.8 25.9
2016-Feb-14 23:00N 24°12' W 067°28'2 2.1 25.9
2016-Feb-14 22:00N 24°14' W 067°29'2 0.8 25.9
2016-Feb-14 19:00N 24°16' W 067°30'2 2.4 26.1
2016-Feb-14 18:00N 24°18' W 067°32'0 0.0 26.0
2016-Feb-14 17:00N 24°18' W 067°32'2 1.2 25.9
2016-Feb-14 15:00N 24°20' W 067°33'1 1.3 25.6
2016-Feb-14 14:00N 24°21' W 067°34'1 1.3 25.5
2016-Feb-14 13:00N 24°22' W 067°35'0 0.0 25.4
2016-Feb-14 12:00N 24°22' W 067°35'0 0.1 25.5
2016-Feb-14 11:00N 24°22' W 067°35'4 0.4 25.5
2016-Feb-14 01:00N 24°25' W 067°38'7 1.5 25.5
2016-Feb-13 20:00N 24°32' W 067°39'0 0.0 25.5
2016-Feb-13 19:00N 24°32' W 067°39'5 1.2 25.6
2016-Feb-13 15:00N 24°34' W 067°44'1 0.7 25.3
2016-Feb-13 14:00N 24°35' W 067°45'4 1.2 25.3
2016-Feb-13 11:00N 24°36' W 067°48'0 0.2 25.3
2016-Feb-13 10:00N 24°36' W 067°48'0 0.2 25.3
2016-Feb-13 09:00N 24°36' W 067°48'5 0.7 25.3
2016-Feb-13 02:00N 24°38' W 067°54'0 0.4 25.2
2016-Feb-13 01:00N 24°39' W 067°54'2 0.5 25.2
2016-Feb-12 21:00N 24°40' W 067°55'1 0.5 25.1
2016-Feb-12 19:00N 24°41' W 067°56'1 0.4 25.1
2016-Feb-12 17:00N 24°42' W 067°57'2 0.3 25.1
2016-Feb-12 09:00N 24°43' W 067°58'2 0.2 25.2
2016-Feb-12 02:00N 24°44' W 067°59'1 0.5 25.4
2016-Feb-11 23:00N 24°43' W 068°01'0 0.1 25.3
2016-Feb-11 21:00N 24°43' W 068°01'2 1.2 25.2
2016-Feb-11 19:00N 24°45' W 068°03'2 0.5 25.3
2016-Feb-11 15:00N 24°46' W 068°05'2 0.5 25.2
2016-Feb-11 11:00N 24°46' W 068°07'1 0.6 25.1
2016-Feb-11 09:00N 24°47' W 068°08'8 1.0 25.2
2016-Feb-11 01:00N 24°50' W 068°16'1 0.8 25.2
2016-Feb-11 00:00N 24°51' W 068°17'0 0.1 25.3
2016-Feb-10 23:00N 24°51' W 068°17'2 0.4 25.4
2016-Feb-10 19:00N 24°51' W 068°18'1 0.2 25.6
2016-Feb-10 15:00N 24°52' W 068°19'1 0.7 25.4
2016-Feb-10 14:00N 24°52' W 068°19'2 0.2 25.3
2016-Feb-10 03:00N 24°54' W 068°20'   25.3
Track history (hours):
 
Tides and Currents Weather Stations Pressure Air Temp Water Temp Dewpoint Dewpoint Depression Visibility Wind Speed Wind Dir Waves Ship Positions

Drifting buoy 41607

Last reported at 2016-Feb-20 03:00 UTC. Time now 2016-Dec-06 16:07 UTC.
Position N 24°20' W 067°22'.
Warning: this ship's position is months out of date.

Water temperature 25.7 ° C

Date/timePositionNaut miles runAvg speedWind from/ knotsBaromVisibWave heightAir tempDewpointWater temp
2016-Feb-20 03:00N 24°20' W 067°22'1 0.7 25.7
2016-Feb-20 02:00N 24°21' W 067°21'1 1.3 25.7
2016-Feb-20 01:00N 24°22' W 067°21'0 0.0 25.7
2016-Feb-20 00:00N 24°22' W 067°21'0 0.3 25.7
2016-Feb-19 23:00N 24°23' W 067°21'1 0.4 25.7
2016-Feb-19 21:00N 24°23' W 067°21'1 0.2 25.7
2016-Feb-19 15:00N 24°25' W 067°21'0 0.2 25.8
2016-Feb-19 14:00N 24°25' W 067°21'1 1.1 25.8
2016-Feb-19 13:00N 24°26' W 067°21'0 0.0 25.8
2016-Feb-19 12:00N 24°26' W 067°21'0 0.4 25.8
2016-Feb-19 11:00N 24°25' W 067°21'1 1.5 25.8
2016-Feb-19 10:00N 24°27' W 067°22'3 0.3 25.8
2016-Feb-19 02:00N 24°29' W 067°23'1 0.8 25.8
2016-Feb-19 01:00N 24°29' W 067°24'1 0.7 25.8
2016-Feb-19 00:00N 24°30' W 067°24'0 0.0 25.8
2016-Feb-18 23:00N 24°30' W 067°24'11 0.7 25.8
2016-Feb-18 08:00N 24°28' W 067°36'4 0.6 25.8
2016-Feb-18 01:00N 24°25' W 067°39'3 0.6 25.9
2016-Feb-17 20:00N 24°22' W 067°39'3 0.5 26.0
2016-Feb-17 14:00N 24°19' W 067°37'1 0.7 25.9
2016-Feb-17 12:00N 24°19' W 067°39'0 0.4 25.8
2016-Feb-17 11:00N 24°19' W 067°39'6 0.6 25.8
2016-Feb-17 02:00N 24°14' W 067°42'1 0.9 25.8
2016-Feb-17 01:00N 24°13' W 067°42'2 1.1 25.8
2016-Feb-16 23:00N 24°11' W 067°42'7 0.6 25.8
2016-Feb-16 11:00N 24°06' W 067°37'1 0.7 25.9
2016-Feb-16 10:00N 24°05' W 067°36'3 0.4 25.9
2016-Feb-16 02:00N 24°02' W 067°35'1 0.5 25.9
2016-Feb-15 23:00N 24°01' W 067°34'0 0.1 25.9
2016-Feb-15 22:00N 24°01' W 067°34'0 0.1 25.9
2016-Feb-15 20:00N 24°01' W 067°34'1 0.4 25.9
2016-Feb-15 18:00N 24°01' W 067°33'1 0.3 25.9
2016-Feb-15 15:00N 24°01' W 067°32'2 0.7 25.9
2016-Feb-15 12:00N 24°02' W 067°30'11 0.8 25.9
2016-Feb-14 23:00N 24°12' W 067°28'2 2.1 25.9
2016-Feb-14 22:00N 24°14' W 067°29'2 0.8 25.9
2016-Feb-14 19:00N 24°16' W 067°30'2 2.4 26.1
2016-Feb-14 18:00N 24°18' W 067°32'0 0.0 26.0
2016-Feb-14 17:00N 24°18' W 067°32'2 1.2 25.9
2016-Feb-14 15:00N 24°20' W 067°33'1 1.3 25.6
2016-Feb-14 14:00N 24°21' W 067°34'1 1.3 25.5
2016-Feb-14 13:00N 24°22' W 067°35'0 0.0 25.4
2016-Feb-14 12:00N 24°22' W 067°35'0 0.1 25.5
2016-Feb-14 11:00N 24°22' W 067°35'4 0.4 25.5
2016-Feb-14 01:00N 24°25' W 067°38'7 1.5 25.5
2016-Feb-13 20:00N 24°32' W 067°39'0 0.0 25.5
2016-Feb-13 19:00N 24°32' W 067°39'5 1.2 25.6
2016-Feb-13 15:00N 24°34' W 067°44'1 0.7 25.3
2016-Feb-13 14:00N 24°35' W 067°45'4 1.2 25.3
2016-Feb-13 11:00N 24°36' W 067°48'0 0.2 25.3
2016-Feb-13 10:00N 24°36' W 067°48'0 0.2 25.3
2016-Feb-13 09:00N 24°36' W 067°48'5 0.7 25.3
2016-Feb-13 02:00N 24°38' W 067°54'0 0.4 25.2
2016-Feb-13 01:00N 24°39' W 067°54'2 0.5 25.2
2016-Feb-12 21:00N 24°40' W 067°55'1 0.5 25.1
2016-Feb-12 19:00N 24°41' W 067°56'1 0.4 25.1
2016-Feb-12 17:00N 24°42' W 067°57'2 0.3 25.1
2016-Feb-12 09:00N 24°43' W 067°58'2 0.2 25.2
2016-Feb-12 02:00N 24°44' W 067°59'1 0.5 25.4
2016-Feb-11 23:00N 24°43' W 068°01'0 0.1 25.3
2016-Feb-11 21:00N 24°43' W 068°01'2 1.2 25.2
2016-Feb-11 19:00N 24°45' W 068°03'2 0.5 25.3
2016-Feb-11 15:00N 24°46' W 068°05'2 0.5 25.2
2016-Feb-11 11:00N 24°46' W 068°07'1 0.6 25.1
2016-Feb-11 09:00N 24°47' W 068°08'8 1.0 25.2
2016-Feb-11 01:00N 24°50' W 068°16'1 0.8 25.2
2016-Feb-11 00:00N 24°51' W 068°17'0 0.1 25.3
2016-Feb-10 23:00N 24°51' W 068°17'2 0.4 25.4
2016-Feb-10 19:00N 24°51' W 068°18'1 0.2 25.6
2016-Feb-10 15:00N 24°52' W 068°19'1 0.7 25.4
2016-Feb-10 14:00N 24°52' W 068°19'2 0.2 25.3
2016-Feb-10 03:00N 24°54' W 068°20'   25.3

Dump ship's entire track history